Time;durP1;ratioP1;P1;durP2;ratioP2;P2;SDS_P1;SDS_P2;PMS_P1;PMS_P2;Temp;Humidity;BMP_temperature;BMP_pressure;BME280_temperature;BME280_humidity;BME280_pressure;Samples;Min_cycle;Max_cycle;Signal;HPM_P1;HPM_P2
2021/06/04 00:01:31;;;;;;;3.40;2.20;;;21.10;67.40;;;;;;5073559;28;20414;-61
2021/06/04 00:03:59;;;;;;;3.17;2.20;;;21.20;67.00;;;;;;5092564;28;20045;-62
2021/06/04 00:06:27;;;;;;;2.78;2.25;;;21.20;66.30;;;;;;5113830;28;20120;-62
2021/06/04 00:08:56;;;;;;;5.95;2.78;;;21.20;65.80;;;;;;5102507;28;20040;-61
2021/06/04 00:11:40;;;;;;;3.83;2.65;;;21.30;65.20;;;;;;5113090;28;20048;-62
2021/06/04 00:14:17;;;;;;;3.22;2.50;;;21.30;65.10;;;;;;5102263;28;20055;-62
2021/06/04 00:16:49;;;;;;;4.28;2.50;;;21.30;65.30;;;;;;5114543;28;20047;-61
2021/06/04 00:19:20;;;;;;;4.43;2.85;;;21.30;65.50;;;;;;5101302;28;20105;-61
2021/06/04 00:21:54;;;;;;;5.57;2.70;;;21.30;65.70;;;;;;5114857;28;20043;-62
2021/06/04 00:24:23;;;;;;;3.20;2.40;;;21.40;65.80;;;;;;5105931;28;20074;-61
2021/06/04 00:26:52;;;;;;;3.20;2.42;;;21.40;65.80;;;;;;5092925;28;20131;-62
2021/06/04 00:29:20;;;;;;;3.72;2.60;;;21.40;65.90;;;;;;5100985;28;20052;-61
2021/06/04 00:31:50;;;;;;;4.43;3.42;;;21.40;66.00;;;;;;5113609;28;20051;-62
2021/06/04 00:34:19;;;;;;;5.28;4.43;;;21.40;66.10;;;;;;5101043;28;20428;-62
2021/06/04 00:36:47;;;;;;;5.40;4.32;;;21.40;65.90;;;;;;5096488;28;20051;-61
2021/06/04 00:39:18;;;;;;;5.70;4.47;;;21.40;65.80;;;;;;5102201;28;20048;-62
2021/06/04 00:41:56;;;;;;;6.65;4.15;;;21.40;65.70;;;;;;5096819;28;20051;-61
2021/06/04 00:44:25;;;;;;;5.50;4.57;;;21.30;65.30;;;;;;5100772;28;20054;-61
2021/06/04 00:46:54;;;;;;;4.55;3.38;;;21.40;65.20;;;;;;5114405;28;20052;-61
2021/06/04 00:49:23;;;;;;;5.13;3.45;;;21.30;65.40;;;;;;5105458;28;20188;-61
2021/06/04 00:52:14;;;;;;;5.43;3.40;;;21.40;65.80;;;;;;5092761;28;20051;-62
2021/06/04 00:54:44;;;;;;;4.53;3.53;;;21.40;66.10;;;;;;5101736;28;20052;-61
2021/06/04 00:57:13;;;;;;;6.65;4.03;;;21.30;66.30;;;;;;5111386;28;20142;-61
2021/06/04 00:59:43;;;;;;;4.93;3.05;;;21.30;66.20;;;;;;5102652;28;20051;-61
2021/06/04 01:02:23;;;;;;;4.97;3.25;;;21.20;65.70;;;;;;5110576;28;20048;-61
2021/06/04 01:04:51;;;;;;;4.45;2.88;;;21.20;65.20;;;;;;5097951;28;20136;-61
2021/06/04 01:07:34;;;;;;;4.30;2.80;;;21.20;64.80;;;;;;5094219;28;20060;-61
2021/06/04 01:10:12;;;;;;;5.43;3.42;;;21.20;64.30;;;;;;5098556;28;20044;-61
2021/06/04 01:13:18;;;;;;;4.28;2.70;;;21.20;63.90;;;;;;5095322;28;20040;-61
2021/06/04 01:15:59;;;;;;;4.30;2.60;;;21.20;64.20;;;;;;5101657;28;20428;-61
2021/06/04 01:18:53;;;;;;;5.30;2.80;;;21.20;64.50;;;;;;5106265;28;20054;-61
2021/06/04 01:21:26;;;;;;;4.47;2.58;;;21.20;65.30;;;;;;5111928;28;20055;-61
2021/06/04 01:23:56;;;;;;;6.35;3.55;;;21.30;66.20;;;;;;5084718;28;20076;-61
2021/06/04 01:26:39;;;;;;;5.25;3.17;;;21.20;66.60;;;;;;5113229;28;20490;-61
2021/06/04 01:29:23;;;;;;;5.80;3.63;;;21.20;67.10;;;;;;5083621;28;20394;-61
2021/06/04 01:32:08;;;;;;;4.20;2.85;;;21.20;67.50;;;;;;5111825;28;20061;-61
2021/06/04 01:34:42;;;;;;;7.78;3.88;;;21.20;67.70;;;;;;5100610;28;20035;-61
2021/06/04 01:37:18;;;;;;;5.43;4.15;;;21.20;68.30;;;;;;5111019;28;20043;-61
2021/06/04 01:39:57;;;;;;;4.65;3.15;;;21.10;68.70;;;;;;5097153;28;20044;-61
2021/06/04 01:42:34;;;;;;;7.85;3.95;;;21.10;69.00;;;;;;5090676;28;20049;-61
2021/06/04 01:45:22;;;;;;;5.40;4.05;;;21.10;69.40;;;;;;5103761;28;20123;-61
2021/06/04 01:48:11;;;;;;;6.93;4.35;;;21.10;69.80;;;;;;5109086;28;20044;-61
2021/06/04 01:51:00;;;;;;;7.00;3.97;;;21.10;70.20;;;;;;5085330;28;20132;-61
2021/06/04 01:53:40;;;;;;;6.30;4.50;;;21.00;70.50;;;;;;5104994;28;20065;-61
2021/06/04 01:56:17;;;;;;;7.63;4.50;;;21.00;70.80;;;;;;5074240;28;20045;-61
2021/06/04 01:59:08;;;;;;;6.53;3.90;;;20.90;70.80;;;;;;5093940;28;20048;-61
2021/06/04 02:01:50;;;;;;;6.90;4.53;;;20.90;70.70;;;;;;5088216;28;20135;-61
2021/06/04 02:04:33;;;;;;;5.57;4.00;;;20.80;70.30;;;;;;5087659;28;20284;-61
2021/06/04 02:07:09;;;;;;;7.53;5.03;;;20.80;70.10;;;;;;5112451;28;20471;-61
2021/06/04 02:09:37;;;;;;;9.00;5.80;;;20.70;69.70;;;;;;5099477;28;20044;-61
2021/06/04 02:12:16;;;;;;;9.65;5.13;;;20.70;69.20;;;;;;5110125;28;20052;-61
2021/06/04 02:15:01;;;;;;;7.65;4.93;;;20.70;68.60;;;;;;5102621;28;20128;-61
2021/06/04 02:17:41;;;;;;;7.18;4.45;;;20.70;68.10;;;;;;5110064;28;20043;-61
2021/06/04 02:20:22;;;;;;;6.13;4.07;;;20.80;67.50;;;;;;5103213;28;20051;-61
2021/06/04 02:23:16;;;;;;;7.15;3.45;;;20.80;66.90;;;;;;5108382;28;20052;-61
2021/06/04 02:26:00;;;;;;;4.35;2.63;;;20.80;66.70;;;;;;5100418;28;20054;-61
2021/06/04 02:28:37;;;;;;;4.53;2.97;;;20.90;66.50;;;;;;5104480;28;20515;-61
2021/06/04 02:31:28;;;;;;;4.72;3.28;;;20.90;66.20;;;;;;5108862;28;20048;-61
2021/06/04 02:34:05;;;;;;;4.13;2.90;;;20.90;66.10;;;;;;5099816;28;20082;-61
2021/06/04 02:36:45;;;;;;;4.93;3.38;;;20.90;66.20;;;;;;5088158;28;20091;-61
2021/06/04 02:39:18;;;;;;;4.97;3.63;;;20.90;66.10;;;;;;5100234;28;20044;-61
2021/06/04 02:41:57;;;;;;;5.38;2.95;;;20.90;65.80;;;;;;5116979;28;20047;-61
2021/06/04 02:44:31;;;;;;;5.55;3.63;;;20.90;65.60;;;;;;5081407;28;20056;-61
2021/06/04 02:47:24;;;;;;;4.70;2.75;;;20.80;65.30;;;;;;5114760;28;20043;-61
2021/06/04 02:49:54;;;;;;;7.38;3.10;;;20.80;65.30;;;;;;5101049;28;20060;-61
2021/06/04 02:52:30;;;;;;;5.43;3.00;;;20.80;65.20;;;;;;5096803;28;20040;-61
2021/06/04 02:55:03;;;;;;;5.15;3.03;;;20.80;64.90;;;;;;5101651;28;20048;-61
2021/06/04 02:57:35;;;;;;;5.47;2.88;;;20.80;64.50;;;;;;5097938;28;20080;-61
2021/06/04 03:00:28;;;;;;;4.28;3.05;;;20.90;64.40;;;;;;5106122;28;20044;-61
2021/06/04 03:02:57;;;;;;;3.75;2.92;;;20.90;64.30;;;;;;5111853;28;20050;-61
2021/06/04 03:05:30;;;;;;;5.25;2.75;;;20.90;64.30;;;;;;5097529;28;20040;-61
2021/06/04 03:07:59;;;;;;;6.25;3.42;;;20.90;64.20;;;;;;5111133;28;20055;-61
2021/06/04 03:10:43;;;;;;;5.57;2.70;;;20.90;64.20;;;;;;5089696;28;20047;-61
2021/06/04 03:13:25;;;;;;;5.82;3.22;;;20.90;64.20;;;;;;5092679;28;20048;-61
2021/06/04 03:15:57;;;;;;;5.00;3.13;;;20.90;64.10;;;;;;5110318;28;20494;-61
2021/06/04 03:18:36;;;;;;;6.22;3.70;;;20.80;64.30;;;;;;5087040;28;20527;-61
2021/06/04 03:21:12;;;;;;;5.25;3.33;;;20.80;64.40;;;;;;5108720;28;20051;-61
2021/06/04 03:23:40;;;;;;;4.88;3.38;;;20.80;64.20;;;;;;5088519;28;20044;-61
2021/06/04 03:26:22;;;;;;;3.55;2.50;;;20.80;63.90;;;;;;5075947;28;20117;-61
2021/06/04 03:28:56;;;;;;;4.57;2.88;;;20.80;63.80;;;;;;5096004;28;20076;-61
2021/06/04 03:31:28;;;;;;;5.05;2.95;;;20.80;63.70;;;;;;5115481;28;20047;-61
2021/06/04 03:33:59;;;;;;;3.72;2.65;;;20.80;63.80;;;;;;5103935;28;20639;-61
2021/06/04 03:36:32;;;;;;;3.65;2.38;;;20.80;64.20;;;;;;5073768;28;20048;-61
2021/06/04 03:39:03;;;;;;;3.88;2.83;;;20.90;63.70;;;;;;5098275;28;20490;-61
2021/06/04 03:41:36;;;;;;;4.63;3.03;;;20.90;63.60;;;;;;5090801;28;20631;-62
2021/06/04 03:44:13;;;;;;;4.97;2.92;;;21.00;63.60;;;;;;5086246;28;20517;-61
2021/06/04 03:46:42;;;;;;;4.65;2.90;;;21.00;63.40;;;;;;5097613;28;20047;-61
2021/06/04 03:49:16;;;;;;;6.70;3.25;;;21.10;63.60;;;;;;5101799;28;20048;-61
2021/06/04 03:51:47;;;;;;;6.47;3.20;;;21.10;63.50;;;;;;5081198;28;20039;-61
2021/06/04 03:54:20;;;;;;;5.28;3.50;;;21.10;63.10;;;;;;5103002;28;20075;-61
2021/06/04 03:56:48;;;;;;;4.30;2.90;;;21.20;63.00;;;;;;5115388;28;20051;-61
2021/06/04 03:59:16;;;;;;;5.50;3.13;;;21.30;62.90;;;;;;5101507;28;20048;-61
2021/06/04 04:01:55;;;;;;;6.07;2.95;;;21.40;62.90;;;;;;5115284;28;20051;-61
2021/06/04 04:04:24;;;;;;;5.38;2.80;;;21.40;62.70;;;;;;5104929;28;20117;-61
2021/06/04 04:06:52;;;;;;;6.63;3.88;;;21.50;62.50;;;;;;5094461;28;20082;-61
2021/06/04 04:09:20;;;;;;;9.15;3.25;;;21.60;62.50;;;;;;5101567;28;20048;-61
2021/06/04 04:11:51;;;;;;;5.20;2.75;;;21.60;62.50;;;;;;5115167;27;20043;-61
2021/06/04 04:14:20;;;;;;;8.27;3.25;;;21.70;62.40;;;;;;5102220;28;20142;-61
2021/06/04 04:16:48;;;;;;;5.30;4.13;;;21.80;62.10;;;;;;5113740;28;20083;-61
2021/06/04 04:19:19;;;;;;;5.25;3.53;;;21.90;62.20;;;;;;5102595;28;20486;-61
2021/06/04 04:21:49;;;;;;;7.03;4.05;;;22.00;62.00;;;;;;5114213;28;20056;-61
2021/06/04 04:24:21;;;;;;;5.63;3.05;;;22.10;61.80;;;;;;5102288;28;20040;-61
2021/06/04 04:26:49;;;;;;;5.20;3.75;;;22.20;61.60;;;;;;5113282;28;20071;-61
2021/06/04 04:29:17;;;;;;;6.18;3.35;;;22.30;61.40;;;;;;5101006;28;20052;-61
2021/06/04 04:31:49;;;;;;;6.20;3.47;;;22.40;61.40;;;;;;5114913;27;20393;-61
2021/06/04 04:34:18;;;;;;;4.55;3.10;;;22.50;61.10;;;;;;5102003;28;20056;-61
2021/06/04 04:36:49;;;;;;;3.97;2.78;;;22.60;60.90;;;;;;5113104;28;20075;-62
2021/06/04 04:39:39;;;;;;;4.90;2.88;;;22.70;60.60;;;;;;5100772;28;20058;-61
2021/06/04 04:42:09;;;;;;;4.60;3.17;;;22.90;60.50;;;;;;5113396;28;20133;-61
2021/06/04 04:44:39;;;;;;;5.45;2.97;;;23.00;59.90;;;;;;5101364;28;20055;-61
2021/06/04 04:47:10;;;;;;;5.45;3.15;;;23.10;60.10;;;;;;5113211;28;20051;-61
2021/06/04 04:49:38;;;;;;;4.82;2.85;;;23.20;59.90;;;;;;5101813;28;20058;-61
2021/06/04 04:52:13;;;;;;;4.50;3.53;;;23.30;59.70;;;;;;5111850;28;20048;-61
2021/06/04 04:54:51;;;;;;;5.28;3.45;;;23.40;59.30;;;;;;5101932;28;20054;-61
2021/06/04 04:57:20;;;;;;;5.47;3.42;;;23.50;59.10;;;;;;5110670;28;20482;-61
2021/06/04 04:59:48;;;;;;;5.43;2.97;;;23.60;59.30;;;;;;5104746;28;20035;-61
2021/06/04 05:02:16;;;;;;;5.95;3.60;;;23.70;59.00;;;;;;5110405;28;20056;-61
2021/06/04 05:04:44;;;;;;;4.90;3.53;;;23.70;58.70;;;;;;5103787;28;20047;-61
2021/06/04 05:07:12;;;;;;;7.18;3.53;;;23.80;58.90;;;;;;5111084;28;20451;-61
2021/06/04 05:09:40;;;;;;;5.10;3.40;;;24.00;58.80;;;;;;5103532;28;20047;-61
2021/06/04 05:12:08;;;;;;;6.43;3.75;;;24.10;58.70;;;;;;5112790;28;20044;-61
2021/06/04 05:14:36;;;;;;;8.93;3.88;;;24.10;58.70;;;;;;5100271;28;20055;-61
2021/06/04 05:17:06;;;;;;;5.50;3.83;;;24.20;58.60;;;;;;5111325;28;20409;-61
2021/06/04 05:19:33;;;;;;;6.15;4.15;;;24.30;58.20;;;;;;5101416;28;20482;-61
2021/06/04 05:22:01;;;;;;;5.40;3.88;;;24.50;58.30;;;;;;5112611;28;20058;-61
2021/06/04 05:24:29;;;;;;;5.43;4.13;;;24.50;58.00;;;;;;5103990;28;20070;-61
2021/06/04 05:26:57;;;;;;;8.38;4.68;;;24.70;58.10;;;;;;5093039;28;20043;-61
2021/06/04 05:29:25;;;;;;;5.93;4.20;;;24.80;58.10;;;;;;5105099;28;20044;-61
2021/06/04 05:31:52;;;;;;;6.43;3.95;;;24.90;58.00;;;;;;5092461;28;20044;-61
2021/06/04 05:34:20;;;;;;;5.70;4.18;;;25.00;57.70;;;;;;5105183;28;20058;-61
2021/06/04 05:36:48;;;;;;;5.82;3.78;;;25.10;58.20;;;;;;5092093;28;20052;-62
2021/06/04 05:39:19;;;;;;;6.75;3.85;;;25.30;57.70;;;;;;5099593;28;20489;-61
2021/06/04 05:41:51;;;;;;;4.75;3.03;;;25.40;57.40;;;;;;5112508;28;20047;-62
2021/06/04 05:44:23;;;;;;;6.30;3.45;;;25.60;57.40;;;;;;5099794;28;20071;-62
2021/06/04 05:46:54;;;;;;;6.57;3.38;;;25.70;57.10;;;;;;5095789;28;20055;-62
2021/06/04 05:49:22;;;;;;;3.85;2.20;;;25.80;56.90;;;;;;5104889;28;20055;-61
2021/06/04 05:51:53;;;;;;;4.82;2.67;;;25.90;56.40;;;;;;5093179;28;20052;-62
2021/06/04 05:54:21;;;;;;;5.28;2.72;;;26.00;56.10;;;;;;5103872;28;20066;-61
2021/06/04 05:56:49;;;;;;;4.25;2.25;;;26.10;55.80;;;;;;5093150;28;20444;-62
2021/06/04 05:59:18;;;;;;;5.15;2.38;;;26.20;55.50;;;;;;5100460;28;20048;-62
2021/06/04 06:01:47;;;;;;;4.78;2.72;;;26.20;55.20;;;;;;5112531;28;20039;-62
2021/06/04 06:04:16;;;;;;;5.15;2.30;;;26.30;55.20;;;;;;5100752;28;20046;-62
2021/06/04 06:06:44;;;;;;;3.80;2.03;;;26.40;55.30;;;;;;5113158;28;20527;-61
2021/06/04 06:09:13;;;;;;;6.45;1.92;;;26.50;55.60;;;;;;5100973;28;20508;-62
2021/06/04 06:11:40;;;;;;;3.38;1.90;;;26.50;55.00;;;;;;5112334;28;20497;-62
2021/06/04 06:14:10;;;;;;;3.50;2.00;;;26.50;54.80;;;;;;5103299;28;20048;-62
2021/06/04 06:16:38;;;;;;;3.88;1.95;;;26.50;54.80;;;;;;5117188;28;20068;-61
2021/06/04 06:19:07;;;;;;;4.43;2.22;;;26.50;54.80;;;;;;5104849;28;20131;-62
2021/06/04 06:21:36;;;;;;;4.97;2.88;;;26.50;55.00;;;;;;5117210;28;20550;-61
2021/06/04 06:24:05;;;;;;;4.38;2.60;;;26.70;55.40;;;;;;5104481;28;20150;-62
2021/06/04 06:26:33;;;;;;;3.33;2.58;;;26.80;55.50;;;;;;5116159;28;20060;-61
2021/06/04 06:29:03;;;;;;;5.78;2.60;;;26.90;55.90;;;;;;5104779;28;20130;-62
2021/06/04 06:31:34;;;;;;;4.95;2.53;;;26.90;56.10;;;;;;5076354;28;20567;-62
2021/06/04 06:34:04;;;;;;;5.57;2.67;;;26.90;55.90;;;;;;5099716;28;20051;-62
2021/06/04 06:36:34;;;;;;;5.20;2.65;;;26.80;56.20;;;;;;5076276;28;20055;-62
2021/06/04 06:39:10;;;;;;;3.80;2.25;;;26.90;56.80;;;;;;5099897;28;20060;-62
2021/06/04 06:41:41;;;;;;;3.05;2.08;;;27.00;57.10;;;;;;5076297;28;20098;-62
2021/06/04 06:44:10;;;;;;;5.22;2.40;;;27.10;57.40;;;;;;5099940;28;20052;-62
2021/06/04 06:46:40;;;;;;;3.08;2.58;;;27.20;57.10;;;;;;5116647;28;20050;-61
2021/06/04 06:49:09;;;;;;;2.65;1.98;;;27.30;57.30;;;;;;5104479;28;20118;-62
2021/06/04 06:51:37;;;;;;;5.78;2.78;;;27.40;57.20;;;;;;5116510;28;20109;-61
2021/06/04 06:54:08;;;;;;;3.13;2.13;;;27.50;56.70;;;;;;5104116;28;20044;-62
2021/06/04 06:56:37;;;;;;;3.90;2.53;;;27.50;56.70;;;;;;5115052;28;20440;-62
2021/06/04 06:59:05;;;;;;;3.78;2.10;;;27.70;57.00;;;;;;5103850;28;20068;-62
2021/06/04 07:01:32;;;;;;;3.78;1.85;;;27.70;56.90;;;;;;5116410;28;20051;-62
2021/06/04 07:04:00;;;;;;;2.65;1.50;;;27.70;56.60;;;;;;5103037;28;20048;-62
2021/06/04 07:06:31;;;;;;;3.78;2.03;;;27.70;56.60;;;;;;5074355;28;20053;-61
2021/06/04 07:09:00;;;;;;;3.45;2.50;;;27.80;56.80;;;;;;5098413;28;20054;-62
2021/06/04 07:11:39;;;;;;;3.25;1.92;;;27.90;56.30;;;;;;5091573;28;20049;-62
2021/06/04 07:14:10;;;;;;;3.05;2.03;;;27.90;56.10;;;;;;5099716;28;20052;-62
2021/06/04 07:16:39;;;;;;;4.78;2.25;;;28.00;55.70;;;;;;5116325;28;20050;-62
2021/06/04 07:19:06;;;;;;;2.70;1.77;;;28.10;55.80;;;;;;5103456;28;20169;-61
2021/06/04 07:21:38;;;;;;;3.28;2.38;;;28.20;55.90;;;;;;5116075;28;20052;-62
2021/06/04 07:24:13;;;;;;;5.13;2.15;;;28.30;55.70;;;;;;5103157;28;20051;-62
2021/06/04 07:26:52;;;;;;;3.10;2.00;;;28.20;55.80;;;;;;5116098;28;20062;-61
2021/06/04 07:29:22;;;;;;;3.58;1.70;;;28.30;56.30;;;;;;5103545;28;20097;-62
2021/06/04 07:31:50;;;;;;;2.97;1.67;;;28.40;56.30;;;;;;5116060;28;20043;-62
2021/06/04 07:34:18;;;;;;;5.38;2.50;;;28.40;56.00;;;;;;5103044;28;20067;-62
2021/06/04 07:36:50;;;;;;;3.10;1.80;;;28.50;56.20;;;;;;5115288;27;20050;-62
2021/06/04 07:39:21;;;;;;;3.10;1.98;;;28.60;56.30;;;;;;5101885;28;20060;-62
2021/06/04 07:41:50;;;;;;;2.72;1.92;;;28.50;55.60;;;;;;5115851;28;20051;-62
2021/06/04 07:44:18;;;;;;;3.78;1.88;;;28.50;56.10;;;;;;5101833;28;20089;-62
2021/06/04 07:46:47;;;;;;;2.83;2.00;;;28.50;55.50;;;;;;5115495;28;20048;-62
2021/06/04 07:49:15;;;;;;;4.30;2.00;;;28.50;55.60;;;;;;5101783;28;20048;-62
2021/06/04 07:51:47;;;;;;;3.20;1.90;;;28.60;56.20;;;;;;5115499;28;20047;-62
2021/06/04 07:54:19;;;;;;;6.38;2.35;;;28.60;56.30;;;;;;5102690;28;20052;-62
2021/06/04 07:56:47;;;;;;;4.10;1.80;;;28.80;56.60;;;;;;5115267;28;20048;-62
2021/06/04 07:59:15;;;;;;;3.28;2.10;;;28.80;56.20;;;;;;5102585;28;20123;-62
2021/06/04 08:01:44;;;;;;;3.65;2.13;;;28.70;56.10;;;;;;5115170;28;20125;-62
2021/06/04 08:04:13;;;;;;;3.40;1.90;;;28.60;56.30;;;;;;5102567;28;20138;-62
2021/06/04 08:06:41;;;;;;;2.63;2.00;;;28.50;56.60;;;;;;5114877;28;20062;-62
2021/06/04 08:09:12;;;;;;;3.17;1.80;;;28.50;56.90;;;;;;5084759;28;20389;-62
2021/06/04 08:11:46;;;;;;;5.05;2.17;;;28.60;56.90;;;;;;5115200;28;20050;-62
2021/06/04 08:14:18;;;;;;;5.43;2.00;;;28.70;57.20;;;;;;5101131;28;20048;-62
2021/06/04 08:16:47;;;;;;;2.80;1.83;;;28.70;56.70;;;;;;5114923;28;20044;-62
2021/06/04 08:19:16;;;;;;;6.63;2.20;;;28.60;56.60;;;;;;5101222;28;20044;-62
2021/06/04 08:21:48;;;;;;;2.55;1.83;;;28.50;56.70;;;;;;5114890;28;20083;-62
2021/06/04 08:24:20;;;;;;;4.28;2.05;;;28.30;57.20;;;;;;5100862;28;20195;-62
2021/06/04 08:26:50;;;;;;;3.70;2.58;;;28.50;57.70;;;;;;5113372;28;20048;-62
2021/06/04 08:29:18;;;;;;;5.03;2.40;;;28.60;57.80;;;;;;5100689;28;20521;-62
2021/06/04 08:31:47;;;;;;;4.47;2.60;;;28.90;57.70;;;;;;5114948;28;20043;-62
2021/06/04 08:34:15;;;;;;;3.65;2.40;;;29.10;57.50;;;;;;5100837;28;20411;-62
2021/06/04 08:36:45;;;;;;;3.00;2.30;;;29.10;56.80;;;;;;5112538;28;20061;-62
2021/06/04 08:39:17;;;;;;;2.60;1.88;;;29.10;57.20;;;;;;5100875;28;20089;-62
2021/06/04 08:41:48;;;;;;;4.22;2.28;;;28.90;56.80;;;;;;5113456;28;20048;-62
2021/06/04 08:44:37;;;;;;;5.15;2.20;;;28.70;57.90;;;;;;5101976;28;20052;-62
2021/06/04 08:47:23;;;;;;;3.97;2.45;;;28.80;58.00;;;;;;5113015;28;20054;-62
2021/06/04 08:50:16;;;;;;;5.95;2.42;;;28.80;57.80;;;;;;5105429;28;20071;-62
2021/06/04 08:53:24;;;;;;;5.07;2.50;;;28.80;58.00;;;;;;5109318;28;20445;-62
2021/06/04 08:55:55;;;;;;;4.35;2.63;;;28.70;58.40;;;;;;5104329;28;20047;-62
2021/06/04 08:58:43;;;;;;;4.43;2.28;;;28.90;58.20;;;;;;5107143;28;20383;-62
2021/06/04 09:01:40;;;;;;;5.07;2.63;;;29.00;57.90;;;;;;5083486;28;20043;-62
2021/06/04 09:04:17;;;;;;;4.47;2.70;;;29.10;58.20;;;;;;5064922;28;20406;-62
2021/06/04 09:06:50;;;;;;;3.13;2.28;;;29.00;58.10;;;;;;5101317;28;20476;-62
2021/06/04 09:09:21;;;;;;;3.63;2.50;;;29.10;58.30;;;;;;5100940;28;20056;-62
2021/06/04 09:11:56;;;;;;;4.43;2.35;;;29.10;58.10;;;;;;5082854;28;20128;-62
2021/06/04 09:14:25;;;;;;;;;;;29.10;58.40;;;;;;5101517;28;20047;-62
2021/06/04 09:16:58;;;;;;;3.72;2.42;;;29.20;58.70;;;;;;5113152;28;19919;-62
2021/06/04 09:19:55;;;;;;;4.82;2.40;;;29.20;57.90;;;;;;5101318;28;20044;-62
2021/06/04 09:22:26;;;;;;;3.92;2.40;;;29.00;58.40;;;;;;5110251;28;20143;-66
2021/06/04 09:24:54;;;;;;;3.83;2.85;;;29.10;58.30;;;;;;5097673;28;20056;-65
2021/06/04 09:27:30;;;;;;;5.63;3.20;;;29.10;58.30;;;;;;5092850;28;20036;-65
2021/06/04 09:30:04;;;;;;;4.15;2.38;;;29.20;58.00;;;;;;5097351;28;20387;-65
2021/06/04 09:32:32;;;;;;;3.55;2.70;;;29.30;58.20;;;;;;5109900;28;20036;-65
2021/06/04 09:35:12;;;;;;;4.18;2.92;;;29.30;58.10;;;;;;5086478;28;20043;-61
2021/06/04 09:37:40;;;;;;;5.93;3.15;;;29.40;58.60;;;;;;5102755;28;20059;-64
2021/06/04 09:40:11;;;;;;;3.95;2.35;;;29.40;57.80;;;;;;5105352;28;20409;-64
2021/06/04 09:43:11;;;;;;;4.43;2.55;;;29.40;57.50;;;;;;5103029;28;20071;-64
2021/06/04 09:45:42;;;;;;;5.03;2.85;;;29.50;57.40;;;;;;5106947;28;20058;-64
2021/06/04 09:48:32;;;;;;;3.90;2.88;;;29.50;58.40;;;;;;5106763;28;20076;-64
2021/06/04 09:51:23;;;;;;;4.68;2.42;;;29.60;57.40;;;;;;5104591;28;20560;-64
2021/06/04 09:53:53;;;;;;;4.25;3.25;;;29.60;57.50;;;;;;5095460;28;20083;-63
2021/06/04 09:56:33;;;;;;;4.05;2.35;;;29.60;57.70;;;;;;5115012;28;20079;-64
2021/06/04 09:59:04;;;;;;;5.60;2.45;;;29.60;57.90;;;;;;5102585;28;20131;-63
2021/06/04 10:01:44;;;;;;;4.18;2.22;;;29.50;57.70;;;;;;5074035;28;20044;-63
2021/06/04 10:04:23;;;;;;;10.73;3.00;;;29.40;57.50;;;;;;5099417;28;20044;-64
2021/06/04 10:07:13;;;;;;;4.28;2.40;;;29.40;56.90;;;;;;5113890;28;20126;-63
2021/06/04 10:09:45;;;;;;;3.70;2.28;;;29.40;57.80;;;;;;5102161;28;20051;-64
2021/06/04 10:12:35;;;;;;;3.95;2.60;;;29.50;57.70;;;;;;5112764;28;20047;-63
2021/06/04 10:15:39;;;;;;;3.53;2.45;;;29.50;57.00;;;;;;5110220;28;20162;-63
2021/06/04 10:18:35;;;;;;;5.72;2.08;;;29.50;56.30;;;;;;5098048;28;20067;-64
2021/06/04 10:21:29;;;;;;;3.40;2.20;;;29.50;56.70;;;;;;5110580;28;20048;-64
2021/06/04 10:23:59;;;;;;;2.92;1.95;;;29.60;56.60;;;;;;5096041;28;20072;-64
2021/06/04 10:26:29;;;;;;;6.72;3.00;;;29.70;56.80;;;;;;5094108;28;20048;-64
2021/06/04 10:29:14;;;;;;;7.40;2.85;;;29.70;57.10;;;;;;5087296;28;20068;-63
2021/06/04 10:31:53;;;;;;;3.53;2.10;;;29.70;56.60;;;;;;5074622;28;20095;-64
2021/06/04 10:34:21;;;;;;;4.22;2.35;;;29.70;57.00;;;;;;5106592;28;20261;-64
2021/06/04 10:36:56;;;;;;;4.22;3.03;;;29.70;57.10;;;;;;5093234;28;20051;-63
2021/06/04 10:39:46;;;;;;;3.25;2.28;;;29.70;56.60;;;;;;5102685;28;20047;-63
2021/06/04 10:42:22;;;;;;;6.35;2.58;;;29.80;56.60;;;;;;5112216;28;20039;-62
2021/06/04 10:45:19;;;;;;;6.07;3.42;;;29.80;57.10;;;;;;5086508;28;20035;-67
2021/06/04 10:48:02;;;;;;;3.53;2.80;;;29.70;56.80;;;;;;5099662;28;20044;-62
2021/06/04 10:50:40;;;;;;;3.75;2.35;;;29.60;56.40;;;;;;5088613;28;20051;-62
2021/06/04 10:53:32;;;;;;;3.78;2.42;;;29.50;55.70;;;;;;5103892;27;20070;-63
2021/06/04 10:56:12;;;;;;;4.13;2.55;;;29.50;55.30;;;;;;5111706;28;20389;-63
2021/06/04 10:58:58;;;;;;;5.15;2.60;;;29.50;54.70;;;;;;5096640;28;20048;-63
2021/06/04 11:01:54;;;;;;;3.47;2.28;;;29.50;55.10;;;;;;5083455;28;20040;-63
2021/06/04 11:04:26;;;;;;;3.40;2.70;;;29.60;55.00;;;;;;5088808;28;20120;-63
2021/06/04 11:07:03;;;;;;;4.88;2.80;;;29.50;55.20;;;;;;5093970;28;20054;-63
2021/06/04 11:09:54;;;;;;;4.38;2.97;;;29.50;55.70;;;;;;5105424;28;20043;-63
2021/06/04 11:12:28;;;;;;;5.22;2.90;;;29.40;55.60;;;;;;5095343;28;20048;-63
2021/06/04 11:15:12;;;;;;;3.33;2.45;;;29.30;55.50;;;;;;5090019;28;20135;-63
2021/06/04 11:17:42;;;;;;;3.13;2.72;;;29.50;55.10;;;;;;5106556;28;20055;-63
2021/06/04 11:20:26;;;;;;;3.47;2.40;;;29.50;54.90;;;;;;5101088;28;20121;-63
2021/06/04 11:23:27;;;;;;;3.17;2.20;;;29.40;54.40;;;;;;5105512;28;20443;-63
2021/06/04 11:26:04;;;;;;;3.47;2.75;;;29.50;54.30;;;;;;5036479;28;20449;-63
2021/06/04 11:28:34;;;;;;;5.47;2.47;;;29.40;54.20;;;;;;5093649;28;20459;-63
2021/06/04 11:31:06;;;;;;;4.75;2.40;;;29.30;54.70;;;;;;5099932;28;20052;-63
2021/06/04 11:33:37;;;;;;;3.50;2.50;;;29.20;55.20;;;;;;5100190;28;20097;-63
2021/06/04 11:36:17;;;;;;;5.35;2.45;;;29.20;55.80;;;;;;5098314;28;20563;-63
2021/06/04 11:38:54;;;;;;;3.47;2.72;;;29.30;55.30;;;;;;5101638;28;20120;-63
2021/06/04 11:41:32;;;;;;;4.57;3.10;;;29.30;55.30;;;;;;5094585;28;20050;-63
2021/06/04 11:44:12;;;;;;;3.47;2.45;;;29.30;55.90;;;;;;5099489;28;20048;-63
2021/06/04 11:46:39;;;;;;;3.72;2.95;;;29.40;56.20;;;;;;5072958;28;20383;-63
2021/06/04 11:49:14;;;;;;;5.53;2.90;;;29.30;56.80;;;;;;5098845;28;20127;-63
2021/06/04 11:51:52;;;;;;;4.43;3.43;;;29.40;57.30;;;;;;5095846;28;20058;-63
2021/06/04 11:54:29;;;;;;;4.85;3.05;;;29.30;57.10;;;;;;5086046;28;20301;-63
2021/06/04 11:57:05;;;;;;;5.20;3.63;;;29.20;57.90;;;;;;5091705;28;20048;-63
2021/06/04 11:59:51;;;;;;;4.70;3.17;;;29.10;58.30;;;;;;5103823;28;20047;-63
2021/06/04 12:02:49;;;;;;;4.40;3.25;;;29.00;58.80;;;;;;5094125;28;20042;-63
2021/06/04 12:05:17;;;;;;;4.70;3.20;;;29.00;58.90;;;;;;5079709;28;20051;-63
2021/06/04 12:08:04;;;;;;;7.28;3.15;;;28.90;58.90;;;;;;5076455;28;20395;-63
2021/06/04 12:10:50;;;;;;;4.28;3.10;;;28.80;59.00;;;;;;5100030;28;20078;-64
2021/06/04 12:13:41;;;;;;;4.95;3.15;;;28.80;59.00;;;;;;5097997;28;20040;-64
2021/06/04 12:16:21;;;;;;;5.35;3.42;;;28.90;59.00;;;;;;5095445;28;20052;-63
2021/06/04 12:19:01;;;;;;;5.45;3.33;;;28.90;59.10;;;;;;5096021;28;20059;-62
2021/06/04 12:21:38;;;;;;;6.47;3.55;;;28.90;58.50;;;;;;5085705;28;20126;-63
2021/06/04 12:24:18;;;;;;;5.25;2.97;;;28.90;58.80;;;;;;5100636;28;20083;-63
2021/06/04 12:27:09;;;;;;;3.88;2.58;;;28.80;58.70;;;;;;5111496;28;20176;-63
2021/06/04 12:29:46;;;;;;;4.18;2.92;;;28.80;59.00;;;;;;5099625;28;20557;-63
2021/06/04 12:32:17;;;;;;;4.45;2.45;;;28.80;59.10;;;;;;5092732;28;21840;-63
2021/06/04 12:34:47;;;;;;;4.53;3.00;;;28.80;59.20;;;;;;5102456;28;20051;-62
2021/06/04 12:37:23;;;;;;;5.85;3.85;;;28.90;59.30;;;;;;5108412;28;20135;-63
2021/06/04 12:40:15;;;;;;;3.58;2.20;;;28.80;59.20;;;;;;5102396;28;20059;-63
2021/06/04 12:42:47;;;;;;;4.85;2.92;;;28.90;59.10;;;;;;5081651;28;20036;-63
2021/06/04 12:45:15;;;;;;;4.07;2.80;;;28.80;58.70;;;;;;5096526;28;20039;-63
2021/06/04 12:48:11;;;;;;;4.93;2.67;;;28.80;58.50;;;;;;5096712;28;20063;-63
2021/06/04 12:50:41;;;;;;;3.95;3.25;;;28.80;58.70;;;;;;5091555;28;20426;-63
2021/06/04 12:53:22;;;;;;;7.55;3.10;;;28.90;58.50;;;;;;5100014;28;20135;-63
2021/06/04 12:55:58;;;;;;;3.10;2.20;;;28.90;58.60;;;;;;5105831;28;20055;-63
2021/06/04 12:58:28;;;;;;;4.30;3.08;;;28.90;58.20;;;;;;5104099;28;20467;-64
2021/06/04 13:01:25;;;;;;;6.53;2.97;;;28.90;58.30;;;;;;5106477;28;20047;-63
2021/06/04 13:03:56;;;;;;;4.13;2.80;;;28.90;58.30;;;;;;5095895;28;20059;-63
2021/06/04 13:06:29;;;;;;;6.20;2.63;;;28.90;58.00;;;;;;5095178;28;20086;-63
2021/06/04 13:08:57;;;;;;;4.43;3.00;;;28.90;57.90;;;;;;5095919;28;20048;-63
2021/06/04 13:11:36;;;;;;;3.00;2.30;;;28.90;57.90;;;;;;5110450;28;20088;-64
2021/06/04 13:14:22;;;;;;;4.07;2.70;;;28.80;58.00;;;;;;5096406;28;20124;-64
2021/06/04 13:16:51;;;;;;;;;;;28.90;58.30;;;;;;5092157;28;20123;-63
2021/06/04 13:19:32;;;;;;;3.40;2.40;;;28.90;58.60;;;;;;5103366;28;20330;-63
2021/06/04 13:22:04;;;;;;;4.28;2.60;;;28.80;58.30;;;;;;5110913;28;20051;-63
2021/06/04 13:24:35;;;;;;;4.25;2.65;;;28.80;58.70;;;;;;5103791;28;20429;-64
2021/06/04 13:27:10;;;;;;;5.03;3.20;;;28.80;58.90;;;;;;5093098;28;20110;-63
2021/06/04 13:29:42;;;;;;;4.03;3.40;;;28.70;58.90;;;;;;5098884;28;20138;-64